sensor_id;sensor_type;location;lat;lon;timestamp;P1;durP1;ratioP1;P2;durP2;ratioP2
55082;SDS011;40978;52.850;6.506;2023-04-29T00:02:00;56.03;;;38.90;;
55082;SDS011;40978;52.850;6.506;2023-04-29T00:04:26;55.75;;;36.75;;
55082;SDS011;40978;52.850;6.506;2023-04-29T00:06:52;54.50;;;37.30;;
55082;SDS011;40978;52.850;6.506;2023-04-29T00:09:18;47.53;;;36.33;;
55082;SDS011;40978;52.850;6.506;2023-04-29T00:11:45;53.42;;;38.28;;
55082;SDS011;40978;52.850;6.506;2023-04-29T00:14:12;48.10;;;35.75;;
55082;SDS011;40978;52.850;6.506;2023-04-29T00:16:37;53.60;;;35.95;;
55082;SDS011;40978;52.850;6.506;2023-04-29T00:19:03;44.72;;;32.97;;
55082;SDS011;40978;52.850;6.506;2023-04-29T00:21:29;42.08;;;34.58;;
55082;SDS011;40978;52.850;6.506;2023-04-29T00:23:55;46.00;;;35.08;;
55082;SDS011;40978;52.850;6.506;2023-04-29T00:26:22;49.78;;;33.88;;
55082;SDS011;40978;52.850;6.506;2023-04-29T00:28:47;40.40;;;31.90;;
55082;SDS011;40978;52.850;6.506;2023-04-29T00:31:13;44.90;;;31.95;;
55082;SDS011;40978;52.850;6.506;2023-04-29T00:33:39;43.33;;;32.92;;
55082;SDS011;40978;52.850;6.506;2023-04-29T00:36:05;41.20;;;31.63;;
55082;SDS011;40978;52.850;6.506;2023-04-29T00:38:31;40.58;;;31.75;;
55082;SDS011;40978;52.850;6.506;2023-04-29T00:40:57;40.13;;;29.65;;
55082;SDS011;40978;52.850;6.506;2023-04-29T00:43:23;35.45;;;27.48;;
55082;SDS011;40978;52.850;6.506;2023-04-29T00:45:49;37.03;;;28.85;;
55082;SDS011;40978;52.850;6.506;2023-04-29T00:48:15;37.63;;;28.42;;
55082;SDS011;40978;52.850;6.506;2023-04-29T00:50:41;34.53;;;27.60;;
55082;SDS011;40978;52.850;6.506;2023-04-29T00:53:08;38.97;;;28.13;;
55082;SDS011;40978;52.850;6.506;2023-04-29T00:55:36;42.78;;;30.35;;
55082;SDS011;40978;52.850;6.506;2023-04-29T00:58:03;32.58;;;26.67;;
55082;SDS011;40978;52.850;6.506;2023-04-29T01:00:28;38.00;;;29.60;;
55082;SDS011;40978;52.850;6.506;2023-04-29T01:02:55;37.17;;;27.83;;
55082;SDS011;40978;52.850;6.506;2023-04-29T01:05:24;38.95;;;27.48;;
55082;SDS011;40978;52.850;6.506;2023-04-29T01:08:01;43.85;;;28.17;;
55082;SDS011;40978;52.850;6.506;2023-04-29T01:10:52;44.95;;;29.48;;
55082;SDS011;40978;52.850;6.506;2023-04-29T01:13:28;41.08;;;29.88;;
55082;SDS011;40978;52.850;6.506;2023-04-29T01:16:02;45.65;;;31.30;;
55082;SDS011;40978;52.850;6.506;2023-04-29T01:18:35;41.90;;;29.30;;
55082;SDS011;40978;52.850;6.506;2023-04-29T01:21:05;45.53;;;32.72;;
55082;SDS011;40978;52.850;6.506;2023-04-29T01:23:31;47.67;;;31.92;;
55082;SDS011;40978;52.850;6.506;2023-04-29T01:25:57;44.55;;;31.92;;
55082;SDS011;40978;52.850;6.506;2023-04-29T01:31:35;47.40;;;33.17;;
55082;SDS011;40978;52.850;6.506;2023-04-29T01:37:17;39.35;;;30.95;;
55082;SDS011;40978;52.850;6.506;2023-04-29T01:43:00;47.90;;;32.83;;
55082;SDS011;40978;52.850;6.506;2023-04-29T01:45:28;47.67;;;33.10;;
55082;SDS011;40978;52.850;6.506;2023-04-29T01:47:56;43.92;;;32.83;;
55082;SDS011;40978;52.850;6.506;2023-04-29T01:50:23;41.63;;;30.33;;
55082;SDS011;40978;52.850;6.506;2023-04-29T01:52:49;45.47;;;31.58;;
55082;SDS011;40978;52.850;6.506;2023-04-29T01:55:15;41.78;;;30.17;;
55082;SDS011;40978;52.850;6.506;2023-04-29T01:57:40;41.10;;;30.55;;
55082;SDS011;40978;52.850;6.506;2023-04-29T02:00:07;40.30;;;30.85;;
55082;SDS011;40978;52.850;6.506;2023-04-29T02:02:33;41.65;;;28.58;;
55082;SDS011;40978;52.850;6.506;2023-04-29T02:04:59;40.03;;;28.92;;
55082;SDS011;40978;52.850;6.506;2023-04-29T02:07:24;41.72;;;28.15;;
55082;SDS011;40978;52.850;6.506;2023-04-29T02:09:50;39.42;;;28.52;;
55082;SDS011;40978;52.850;6.506;2023-04-29T02:12:16;39.67;;;28.77;;
55082;SDS011;40978;52.850;6.506;2023-04-29T02:14:41;39.90;;;28.33;;
55082;SDS011;40978;52.850;6.506;2023-04-29T02:17:07;32.63;;;26.50;;
55082;SDS011;40978;52.850;6.506;2023-04-29T02:19:33;38.22;;;26.85;;
55082;SDS011;40978;52.850;6.506;2023-04-29T02:21:59;33.75;;;24.73;;
55082;SDS011;40978;52.850;6.506;2023-04-29T02:24:25;34.38;;;23.48;;
55082;SDS011;40978;52.850;6.506;2023-04-29T02:26:51;31.65;;;24.42;;
55082;SDS011;40978;52.850;6.506;2023-04-29T02:29:17;31.30;;;23.80;;
55082;SDS011;40978;52.850;6.506;2023-04-29T02:31:43;31.60;;;23.33;;
55082;SDS011;40978;52.850;6.506;2023-04-29T02:34:08;31.80;;;24.45;;
55082;SDS011;40978;52.850;6.506;2023-04-29T02:36:34;30.63;;;24.33;;
55082;SDS011;40978;52.850;6.506;2023-04-29T02:39:00;31.90;;;24.35;;
55082;SDS011;40978;52.850;6.506;2023-04-29T02:41:26;32.72;;;24.33;;
55082;SDS011;40978;52.850;6.506;2023-04-29T02:43:52;31.05;;;24.13;;
55082;SDS011;40978;52.850;6.506;2023-04-29T02:46:17;31.75;;;23.08;;
55082;SDS011;40978;52.850;6.506;2023-04-29T02:48:43;37.38;;;23.83;;
55082;SDS011;40978;52.850;6.506;2023-04-29T02:51:09;33.00;;;23.63;;
55082;SDS011;40978;52.850;6.506;2023-04-29T02:53:35;36.05;;;22.48;;
55082;SDS011;40978;52.850;6.506;2023-04-29T02:56:01;34.80;;;23.58;;
55082;SDS011;40978;52.850;6.506;2023-04-29T02:58:27;34.22;;;23.33;;
55082;SDS011;40978;52.850;6.506;2023-04-29T03:00:52;33.38;;;23.77;;
55082;SDS011;40978;52.850;6.506;2023-04-29T03:03:18;32.03;;;23.00;;
55082;SDS011;40978;52.850;6.506;2023-04-29T03:05:44;31.05;;;23.02;;
55082;SDS011;40978;52.850;6.506;2023-04-29T03:08:09;29.75;;;22.83;;
55082;SDS011;40978;52.850;6.506;2023-04-29T03:10:35;32.78;;;22.15;;
55082;SDS011;40978;52.850;6.506;2023-04-29T03:13:01;32.40;;;22.42;;
55082;SDS011;40978;52.850;6.506;2023-04-29T03:15:27;30.42;;;21.95;;
55082;SDS011;40978;52.850;6.506;2023-04-29T03:17:53;34.05;;;22.38;;
55082;SDS011;40978;52.850;6.506;2023-04-29T03:20:19;29.58;;;21.45;;
55082;SDS011;40978;52.850;6.506;2023-04-29T03:22:45;28.17;;;21.25;;
55082;SDS011;40978;52.850;6.506;2023-04-29T03:25:11;29.88;;;22.08;;
55082;SDS011;40978;52.850;6.506;2023-04-29T03:27:37;33.67;;;21.80;;
55082;SDS011;40978;52.850;6.506;2023-04-29T03:30:03;30.40;;;21.92;;
55082;SDS011;40978;52.850;6.506;2023-04-29T03:32:30;32.80;;;22.48;;
55082;SDS011;40978;52.850;6.506;2023-04-29T03:34:56;35.10;;;21.92;;
55082;SDS011;40978;52.850;6.506;2023-04-29T03:37:21;34.38;;;22.88;;
55082;SDS011;40978;52.850;6.506;2023-04-29T03:39:47;32.47;;;22.67;;
55082;SDS011;40978;52.850;6.506;2023-04-29T03:42:13;30.58;;;22.52;;
55082;SDS011;40978;52.850;6.506;2023-04-29T03:44:38;34.92;;;23.60;;
55082;SDS011;40978;52.850;6.506;2023-04-29T03:47:04;30.95;;;23.25;;
55082;SDS011;40978;52.850;6.506;2023-04-29T03:49:30;33.58;;;22.52;;
55082;SDS011;40978;52.850;6.506;2023-04-29T03:51:56;36.28;;;23.73;;
55082;SDS011;40978;52.850;6.506;2023-04-29T03:54:22;34.60;;;23.73;;
55082;SDS011;40978;52.850;6.506;2023-04-29T03:56:48;32.85;;;24.48;;
55082;SDS011;40978;52.850;6.506;2023-04-29T03:59:13;33.47;;;24.35;;
55082;SDS011;40978;52.850;6.506;2023-04-29T04:01:39;32.75;;;23.63;;
55082;SDS011;40978;52.850;6.506;2023-04-29T04:04:05;35.13;;;23.27;;
55082;SDS011;40978;52.850;6.506;2023-04-29T04:06:31;30.35;;;23.23;;
55082;SDS011;40978;52.850;6.506;2023-04-29T04:08:56;33.78;;;24.85;;
55082;SDS011;40978;52.850;6.506;2023-04-29T04:11:23;34.53;;;23.45;;
55082;SDS011;40978;52.850;6.506;2023-04-29T04:13:49;36.22;;;24.60;;
55082;SDS011;40978;52.850;6.506;2023-04-29T04:16:15;33.63;;;24.60;;
55082;SDS011;40978;52.850;6.506;2023-04-29T04:18:40;33.88;;;24.20;;
55082;SDS011;40978;52.850;6.506;2023-04-29T04:21:10;33.97;;;24.02;;
55082;SDS011;40978;52.850;6.506;2023-04-29T04:23:39;32.15;;;23.75;;
55082;SDS011;40978;52.850;6.506;2023-04-29T04:26:05;30.50;;;22.77;;
55082;SDS011;40978;52.850;6.506;2023-04-29T04:28:31;36.25;;;23.33;;
55082;SDS011;40978;52.850;6.506;2023-04-29T04:30:57;31.27;;;22.40;;
55082;SDS011;40978;52.850;6.506;2023-04-29T04:33:23;33.70;;;23.40;;
55082;SDS011;40978;52.850;6.506;2023-04-29T04:35:50;33.72;;;23.40;;
55082;SDS011;40978;52.850;6.506;2023-04-29T04:38:16;34.38;;;23.55;;
55082;SDS011;40978;52.850;6.506;2023-04-29T04:40:41;31.20;;;23.20;;
55082;SDS011;40978;52.850;6.506;2023-04-29T04:43:07;30.63;;;21.60;;
55082;SDS011;40978;52.850;6.506;2023-04-29T04:45:33;30.63;;;22.02;;
55082;SDS011;40978;52.850;6.506;2023-04-29T04:47:59;29.70;;;22.30;;
55082;SDS011;40978;52.850;6.506;2023-04-29T04:50:28;31.35;;;21.17;;
55082;SDS011;40978;52.850;6.506;2023-04-29T04:52:54;34.60;;;21.50;;
55082;SDS011;40978;52.850;6.506;2023-04-29T04:55:21;30.52;;;21.40;;
55082;SDS011;40978;52.850;6.506;2023-04-29T04:57:47;32.00;;;19.98;;
55082;SDS011;40978;52.850;6.506;2023-04-29T05:00:12;28.92;;;20.27;;
55082;SDS011;40978;52.850;6.506;2023-04-29T05:02:38;29.38;;;19.77;;
55082;SDS011;40978;52.850;6.506;2023-04-29T05:05:04;34.47;;;19.88;;
55082;SDS011;40978;52.850;6.506;2023-04-29T05:07:30;28.88;;;19.35;;
55082;SDS011;40978;52.850;6.506;2023-04-29T05:09:57;31.23;;;19.67;;
55082;SDS011;40978;52.850;6.506;2023-04-29T05:12:23;33.22;;;19.42;;
55082;SDS011;40978;52.850;6.506;2023-04-29T05:14:54;31.90;;;18.90;;
55082;SDS011;40978;52.850;6.506;2023-04-29T05:17:23;28.05;;;18.25;;
55082;SDS011;40978;52.850;6.506;2023-04-29T05:19:48;29.05;;;19.20;;
55082;SDS011;40978;52.850;6.506;2023-04-29T05:22:15;25.55;;;18.20;;
55082;SDS011;40978;52.850;6.506;2023-04-29T05:24:40;31.08;;;18.02;;
55082;SDS011;40978;52.850;6.506;2023-04-29T05:27:06;29.23;;;19.00;;
55082;SDS011;40978;52.850;6.506;2023-04-29T05:29:32;26.88;;;18.13;;
55082;SDS011;40978;52.850;6.506;2023-04-29T05:31:57;29.73;;;19.13;;
55082;SDS011;40978;52.850;6.506;2023-04-29T05:34:23;28.33;;;17.52;;
55082;SDS011;40978;52.850;6.506;2023-04-29T05:36:49;24.48;;;17.88;;
55082;SDS011;40978;52.850;6.506;2023-04-29T05:39:15;25.15;;;17.90;;
55082;SDS011;40978;52.850;6.506;2023-04-29T05:41:41;26.98;;;17.25;;
55082;SDS011;40978;52.850;6.506;2023-04-29T05:44:07;25.38;;;16.38;;
55082;SDS011;40978;52.850;6.506;2023-04-29T05:46:33;21.25;;;15.10;;
55082;SDS011;40978;52.850;6.506;2023-04-29T05:48:59;24.20;;;16.17;;
55082;SDS011;40978;52.850;6.506;2023-04-29T05:51:25;25.80;;;15.75;;
55082;SDS011;40978;52.850;6.506;2023-04-29T05:53:52;25.40;;;15.30;;
55082;SDS011;40978;52.850;6.506;2023-04-29T05:56:18;22.60;;;15.23;;
55082;SDS011;40978;52.850;6.506;2023-04-29T05:58:44;22.70;;;14.40;;
55082;SDS011;40978;52.850;6.506;2023-04-29T06:01:10;20.90;;;13.93;;
55082;SDS011;40978;52.850;6.506;2023-04-29T06:03:36;21.77;;;14.80;;
55082;SDS011;40978;52.850;6.506;2023-04-29T06:06:01;21.00;;;14.68;;
55082;SDS011;40978;52.850;6.506;2023-04-29T06:08:28;18.80;;;14.05;;
55082;SDS011;40978;52.850;6.506;2023-04-29T06:10:53;21.92;;;13.05;;
55082;SDS011;40978;52.850;6.506;2023-04-29T06:13:19;25.52;;;14.15;;
55082;SDS011;40978;52.850;6.506;2023-04-29T06:15:45;18.75;;;14.05;;
55082;SDS011;40978;52.850;6.506;2023-04-29T06:18:11;20.42;;;13.80;;
55082;SDS011;40978;52.850;6.506;2023-04-29T06:20:37;20.58;;;14.18;;
55082;SDS011;40978;52.850;6.506;2023-04-29T06:23:03;17.88;;;12.93;;
55082;SDS011;40978;52.850;6.506;2023-04-29T06:25:29;20.08;;;13.00;;
55082;SDS011;40978;52.850;6.506;2023-04-29T06:27:58;19.83;;;13.48;;
55082;SDS011;40978;52.850;6.506;2023-04-29T06:30:25;19.13;;;13.75;;
55082;SDS011;40978;52.850;6.506;2023-04-29T06:32:50;17.92;;;12.52;;
55082;SDS011;40978;52.850;6.506;2023-04-29T06:35:17;18.40;;;12.45;;
55082;SDS011;40978;52.850;6.506;2023-04-29T06:37:43;19.60;;;12.82;;
55082;SDS011;40978;52.850;6.506;2023-04-29T06:40:09;18.98;;;13.27;;
55082;SDS011;40978;52.850;6.506;2023-04-29T06:42:35;19.20;;;12.48;;
55082;SDS011;40978;52.850;6.506;2023-04-29T06:45:01;16.63;;;12.35;;
55082;SDS011;40978;52.850;6.506;2023-04-29T06:47:27;22.55;;;13.00;;
55082;SDS011;40978;52.850;6.506;2023-04-29T06:49:53;19.52;;;12.20;;
55082;SDS011;40978;52.850;6.506;2023-04-29T06:52:19;15.93;;;12.10;;
55082;SDS011;40978;52.850;6.506;2023-04-29T06:54:44;21.02;;;12.77;;
55082;SDS011;40978;52.850;6.506;2023-04-29T06:57:10;16.98;;;11.55;;
55082;SDS011;40978;52.850;6.506;2023-04-29T06:59:36;17.40;;;12.63;;
55082;SDS011;40978;52.850;6.506;2023-04-29T07:02:02;18.83;;;12.15;;
55082;SDS011;40978;52.850;6.506;2023-04-29T07:04:27;15.75;;;11.10;;
55082;SDS011;40978;52.850;6.506;2023-04-29T07:06:54;15.20;;;10.80;;
55082;SDS011;40978;52.850;6.506;2023-04-29T07:09:20;14.73;;;10.93;;
55082;SDS011;40978;52.850;6.506;2023-04-29T07:11:47;15.30;;;11.25;;
55082;SDS011;40978;52.850;6.506;2023-04-29T07:14:13;13.60;;;10.52;;
55082;SDS011;40978;52.850;6.506;2023-04-29T07:16:40;12.35;;;10.32;;
55082;SDS011;40978;52.850;6.506;2023-04-29T07:19:05;14.05;;;11.18;;
55082;SDS011;40978;52.850;6.506;2023-04-29T07:21:31;13.93;;;10.43;;
55082;SDS011;40978;52.850;6.506;2023-04-29T07:23:57;17.02;;;10.50;;
55082;SDS011;40978;52.850;6.506;2023-04-29T07:26:25;15.90;;;10.30;;
55082;SDS011;40978;52.850;6.506;2023-04-29T07:28:50;16.00;;;9.57;;
55082;SDS011;40978;52.850;6.506;2023-04-29T07:31:16;13.38;;;10.25;;
55082;SDS011;40978;52.850;6.506;2023-04-29T07:33:42;14.93;;;9.65;;
55082;SDS011;40978;52.850;6.506;2023-04-29T07:36:09;15.63;;;10.20;;
55082;SDS011;40978;52.850;6.506;2023-04-29T07:38:35;13.95;;;9.95;;
55082;SDS011;40978;52.850;6.506;2023-04-29T07:41:01;13.57;;;9.57;;
55082;SDS011;40978;52.850;6.506;2023-04-29T07:43:28;14.23;;;8.95;;
55082;SDS011;40978;52.850;6.506;2023-04-29T07:45:54;13.95;;;8.80;;
55082;SDS011;40978;52.850;6.506;2023-04-29T07:48:20;11.95;;;9.00;;
55082;SDS011;40978;52.850;6.506;2023-04-29T07:50:46;12.73;;;9.55;;
55082;SDS011;40978;52.850;6.506;2023-04-29T07:53:12;13.48;;;9.65;;
55082;SDS011;40978;52.850;6.506;2023-04-29T07:55:38;13.48;;;8.27;;
55082;SDS011;40978;52.850;6.506;2023-04-29T07:58:04;15.50;;;10.68;;
55082;SDS011;40978;52.850;6.506;2023-04-29T08:00:30;10.20;;;8.75;;
55082;SDS011;40978;52.850;6.506;2023-04-29T08:02:56;12.63;;;8.57;;
55082;SDS011;40978;52.850;6.506;2023-04-29T08:05:22;12.20;;;8.52;;
55082;SDS011;40978;52.850;6.506;2023-04-29T08:07:48;11.93;;;8.77;;
55082;SDS011;40978;52.850;6.506;2023-04-29T08:10:15;11.63;;;8.07;;
55082;SDS011;40978;52.850;6.506;2023-04-29T08:12:44;15.02;;;8.77;;
55082;SDS011;40978;52.850;6.506;2023-04-29T08:15:10;13.10;;;8.32;;
55082;SDS011;40978;52.850;6.506;2023-04-29T08:17:36;10.52;;;7.57;;
55082;SDS011;40978;52.850;6.506;2023-04-29T08:20:02;10.40;;;7.53;;
55082;SDS011;40978;52.850;6.506;2023-04-29T08:22:28;11.35;;;7.95;;
55082;SDS011;40978;52.850;6.506;2023-04-29T08:24:53;10.98;;;7.75;;
55082;SDS011;40978;52.850;6.506;2023-04-29T08:27:19;9.85;;;7.85;;
55082;SDS011;40978;52.850;6.506;2023-04-29T08:29:46;23.85;;;21.38;;
55082;SDS011;40978;52.850;6.506;2023-04-29T08:32:12;12.48;;;8.40;;
55082;SDS011;40978;52.850;6.506;2023-04-29T08:34:37;9.07;;;7.13;;
55082;SDS011;40978;52.850;6.506;2023-04-29T08:37:05;9.38;;;7.20;;
55082;SDS011;40978;52.850;6.506;2023-04-29T08:39:31;9.27;;;7.85;;
55082;SDS011;40978;52.850;6.506;2023-04-29T08:41:57;10.75;;;7.32;;
55082;SDS011;40978;52.850;6.506;2023-04-29T08:44:26;8.98;;;7.45;;
55082;SDS011;40978;52.850;6.506;2023-04-29T08:46:52;9.60;;;8.23;;
55082;SDS011;40978;52.850;6.506;2023-04-29T08:49:19;11.30;;;8.32;;
55082;SDS011;40978;52.850;6.506;2023-04-29T08:51:48;7.97;;;6.75;;
55082;SDS011;40978;52.850;6.506;2023-04-29T08:54:17;10.43;;;6.10;;
55082;SDS011;40978;52.850;6.506;2023-04-29T08:56:44;8.32;;;6.85;;
55082;SDS011;40978;52.850;6.506;2023-04-29T08:59:12;7.30;;;6.50;;
55082;SDS011;40978;52.850;6.506;2023-04-29T09:01:39;9.10;;;6.20;;
55082;SDS011;40978;52.850;6.506;2023-04-29T09:04:08;10.38;;;6.28;;
55082;SDS011;40978;52.850;6.506;2023-04-29T09:06:51;8.52;;;6.53;;
55082;SDS011;40978;52.850;6.506;2023-04-29T09:09:20;10.98;;;6.13;;
55082;SDS011;40978;52.850;6.506;2023-04-29T09:11:46;7.82;;;6.47;;
55082;SDS011;40978;52.850;6.506;2023-04-29T09:14:11;11.30;;;6.68;;
55082;SDS011;40978;52.850;6.506;2023-04-29T09:16:39;9.57;;;7.03;;
55082;SDS011;40978;52.850;6.506;2023-04-29T09:19:05;8.85;;;6.03;;
55082;SDS011;40978;52.850;6.506;2023-04-29T09:21:30;8.23;;;5.90;;
55082;SDS011;40978;52.850;6.506;2023-04-29T09:23:57;9.10;;;5.80;;
55082;SDS011;40978;52.850;6.506;2023-04-29T09:26:26;8.80;;;5.50;;
55082;SDS011;40978;52.850;6.506;2023-04-29T09:31:32;7.90;;;4.90;;
55082;SDS011;40978;52.850;6.506;2023-04-29T09:33:57;8.50;;;5.13;;
55082;SDS011;40978;52.850;6.506;2023-04-29T09:39:23;6.32;;;5.10;;
55082;SDS011;40978;52.850;6.506;2023-04-29T09:44:18;7.35;;;5.28;;
55082;SDS011;40978;52.850;6.506;2023-04-29T09:46:59;8.98;;;5.00;;
55082;SDS011;40978;52.850;6.506;2023-04-29T09:49:27;7.38;;;5.30;;
55082;SDS011;40978;52.850;6.506;2023-04-29T09:52:15;8.25;;;4.85;;
55082;SDS011;40978;52.850;6.506;2023-04-29T09:54:42;5.65;;;4.72;;
55082;SDS011;40978;52.850;6.506;2023-04-29T09:57:09;7.10;;;5.22;;
55082;SDS011;40978;52.850;6.506;2023-04-29T09:59:37;8.77;;;5.03;;
55082;SDS011;40978;52.850;6.506;2023-04-29T10:02:14;5.93;;;4.15;;
55082;SDS011;40978;52.850;6.506;2023-04-29T10:04:43;8.32;;;4.63;;
55082;SDS011;40978;52.850;6.506;2023-04-29T10:07:13;6.25;;;5.00;;
55082;SDS011;40978;52.850;6.506;2023-04-29T10:09:40;6.43;;;4.68;;
55082;SDS011;40978;52.850;6.506;2023-04-29T10:12:07;7.57;;;5.18;;
55082;SDS011;40978;52.850;6.506;2023-04-29T10:14:41;8.13;;;6.82;;
55082;SDS011;40978;52.850;6.506;2023-04-29T10:17:58;7.82;;;5.53;;
55082;SDS011;40978;52.850;6.506;2023-04-29T10:20:05;8.40;;;5.03;;
55082;SDS011;40978;52.850;6.506;2023-04-29T10:22:46;6.28;;;4.57;;
55082;SDS011;40978;52.850;6.506;2023-04-29T10:25:17;8.07;;;5.20;;
55082;SDS011;40978;52.850;6.506;2023-04-29T10:27:44;5.85;;;5.13;;
55082;SDS011;40978;52.850;6.506;2023-04-29T10:30:13;10.13;;;5.68;;
55082;SDS011;40978;52.850;6.506;2023-04-29T10:32:40;7.72;;;5.35;;
55082;SDS011;40978;52.850;6.506;2023-04-29T10:35:08;8.52;;;6.80;;
55082;SDS011;40978;52.850;6.506;2023-04-29T10:37:37;6.38;;;5.35;;
55082;SDS011;40978;52.850;6.506;2023-04-29T10:40:14;8.43;;;5.57;;
55082;SDS011;40978;52.850;6.506;2023-04-29T10:42:51;8.15;;;4.70;;
55082;SDS011;40978;52.850;6.506;2023-04-29T10:45:21;9.10;;;5.90;;
55082;SDS011;40978;52.850;6.506;2023-04-29T10:53:01;5.53;;;4.72;;
55082;SDS011;40978;52.850;6.506;2023-04-29T10:55:28;6.28;;;3.92;;
55082;SDS011;40978;52.850;6.506;2023-04-29T10:57:55;6.07;;;4.28;;
55082;SDS011;40978;52.850;6.506;2023-04-29T11:00:22;7.55;;;3.80;;
55082;SDS011;40978;52.850;6.506;2023-04-29T11:02:54;5.75;;;3.83;;
55082;SDS011;40978;52.850;6.506;2023-04-29T11:05:35;5.18;;;3.30;;
55082;SDS011;40978;52.850;6.506;2023-04-29T11:08:10;8.13;;;3.63;;
55082;SDS011;40978;52.850;6.506;2023-04-29T11:10:47;6.80;;;3.47;;
55082;SDS011;40978;52.850;6.506;2023-04-29T11:13:37;4.55;;;3.42;;
55082;SDS011;40978;52.850;6.506;2023-04-29T11:16:10;4.80;;;3.50;;
55082;SDS011;40978;52.850;6.506;2023-04-29T11:19:03;5.13;;;3.53;;
55082;SDS011;40978;52.850;6.506;2023-04-29T11:21:33;6.07;;;3.75;;
55082;SDS011;40978;52.850;6.506;2023-04-29T11:24:00;3.95;;;3.22;;
55082;SDS011;40978;52.850;6.506;2023-04-29T11:26:27;7.20;;;3.65;;
55082;SDS011;40978;52.850;6.506;2023-04-29T11:28:53;6.18;;;3.35;;
55082;SDS011;40978;52.850;6.506;2023-04-29T11:31:24;5.15;;;3.63;;
55082;SDS011;40978;52.850;6.506;2023-04-29T11:33:59;5.53;;;3.47;;
55082;SDS011;40978;52.850;6.506;2023-04-29T11:36:25;6.68;;;3.47;;
55082;SDS011;40978;52.850;6.506;2023-04-29T11:38:51;6.93;;;3.20;;
55082;SDS011;40978;52.850;6.506;2023-04-29T11:41:17;4.55;;;2.47;;
55082;SDS011;40978;52.850;6.506;2023-04-29T11:43:53;5.85;;;3.10;;
55082;SDS011;40978;52.850;6.506;2023-04-29T11:46:23;5.85;;;3.28;;
55082;SDS011;40978;52.850;6.506;2023-04-29T11:48:49;7.13;;;3.22;;
55082;SDS011;40978;52.850;6.506;2023-04-29T11:51:15;4.63;;;3.35;;
55082;SDS011;40978;52.850;6.506;2023-04-29T11:53:43;6.25;;;3.33;;
55082;SDS011;40978;52.850;6.506;2023-04-29T11:56:09;6.03;;;2.50;;
55082;SDS011;40978;52.850;6.506;2023-04-29T11:58:36;7.72;;;2.95;;
55082;SDS011;40978;52.850;6.506;2023-04-29T12:01:05;4.38;;;2.45;;
55082;SDS011;40978;52.850;6.506;2023-04-29T12:03:32;5.63;;;2.85;;
55082;SDS011;40978;52.850;6.506;2023-04-29T12:05:58;6.38;;;2.60;;
55082;SDS011;40978;52.850;6.506;2023-04-29T12:08:26;4.55;;;2.75;;
55082;SDS011;40978;52.850;6.506;2023-04-29T12:10:57;5.25;;;3.10;;
55082;SDS011;40978;52.850;6.506;2023-04-29T12:13:30;4.55;;;3.13;;
55082;SDS011;40978;52.850;6.506;2023-04-29T12:15:56;8.45;;;2.90;;
55082;SDS011;40978;52.850;6.506;2023-04-29T12:18:23;7.05;;;2.90;;
55082;SDS011;40978;52.850;6.506;2023-04-29T12:20:51;5.47;;;3.45;;
55082;SDS011;40978;52.850;6.506;2023-04-29T12:23:22;5.75;;;3.08;;
55082;SDS011;40978;52.850;6.506;2023-04-29T12:25:54;4.47;;;2.75;;
55082;SDS011;40978;52.850;6.506;2023-04-29T12:28:22;4.57;;;2.78;;
55082;SDS011;40978;52.850;6.506;2023-04-29T12:30:49;4.38;;;2.70;;
55082;SDS011;40978;52.850;6.506;2023-04-29T12:33:23;4.88;;;2.50;;
55082;SDS011;40978;52.850;6.506;2023-04-29T12:35:51;3.95;;;2.80;;
55082;SDS011;40978;52.850;6.506;2023-04-29T12:38:21;5.85;;;3.15;;
55082;SDS011;40978;52.850;6.506;2023-04-29T12:40:51;4.63;;;2.80;;
55082;SDS011;40978;52.850;6.506;2023-04-29T12:43:17;3.88;;;2.17;;
55082;SDS011;40978;52.850;6.506;2023-04-29T12:45:43;6.50;;;2.30;;
55082;SDS011;40978;52.850;6.506;2023-04-29T12:48:09;5.03;;;2.83;;
55082;SDS011;40978;52.850;6.506;2023-04-29T12:50:37;4.43;;;2.05;;
55082;SDS011;40978;52.850;6.506;2023-04-29T12:53:04;10.10;;;4.40;;
55082;SDS011;40978;52.850;6.506;2023-04-29T12:55:34;5.28;;;2.53;;
55082;SDS011;40978;52.850;6.506;2023-04-29T12:58:02;4.45;;;1.50;;
55082;SDS011;40978;52.850;6.506;2023-04-29T13:00:29;3.40;;;1.70;;
55082;SDS011;40978;52.850;6.506;2023-04-29T13:02:55;4.97;;;2.35;;
55082;SDS011;40978;52.850;6.506;2023-04-29T13:05:21;2.53;;;1.50;;
55082;SDS011;40978;52.850;6.506;2023-04-29T13:07:47;3.08;;;1.80;;
55082;SDS011;40978;52.850;6.506;2023-04-29T13:10:13;4.20;;;2.30;;
55082;SDS011;40978;52.850;6.506;2023-04-29T13:12:40;5.00;;;2.17;;
55082;SDS011;40978;52.850;6.506;2023-04-29T13:15:06;3.83;;;2.10;;
55082;SDS011;40978;52.850;6.506;2023-04-29T13:17:36;11.00;;;4.25;;
55082;SDS011;40978;52.850;6.506;2023-04-29T13:20:02;8.18;;;3.53;;
55082;SDS011;40978;52.850;6.506;2023-04-29T13:22:28;6.57;;;1.80;;
55082;SDS011;40978;52.850;6.506;2023-04-29T13:24:54;8.43;;;3.90;;
55082;SDS011;40978;52.850;6.506;2023-04-29T13:27:20;4.53;;;2.03;;
55082;SDS011;40978;52.850;6.506;2023-04-29T13:29:46;4.50;;;2.08;;
55082;SDS011;40978;52.850;6.506;2023-04-29T13:32:12;3.58;;;1.75;;
55082;SDS011;40978;52.850;6.506;2023-04-29T13:34:38;6.72;;;2.30;;
55082;SDS011;40978;52.850;6.506;2023-04-29T13:37:07;3.38;;;1.67;;
55082;SDS011;40978;52.850;6.506;2023-04-29T13:39:36;4.03;;;2.45;;
55082;SDS011;40978;52.850;6.506;2023-04-29T13:42:01;5.00;;;2.10;;
55082;SDS011;40978;52.850;6.506;2023-04-29T13:44:28;3.28;;;1.90;;
55082;SDS011;40978;52.850;6.506;2023-04-29T13:46:54;5.15;;;2.08;;
55082;SDS011;40978;52.850;6.506;2023-04-29T13:49:19;5.53;;;1.90;;
55082;SDS011;40978;52.850;6.506;2023-04-29T13:51:45;5.68;;;1.75;;
55082;SDS011;40978;52.850;6.506;2023-04-29T13:54:11;6.28;;;1.63;;
55082;SDS011;40978;52.850;6.506;2023-04-29T13:56:36;4.43;;;1.23;;
55082;SDS011;40978;52.850;6.506;2023-04-29T13:59:02;3.33;;;1.52;;
55082;SDS011;40978;52.850;6.506;2023-04-29T14:01:28;2.22;;;1.00;;
55082;SDS011;40978;52.850;6.506;2023-04-29T14:03:54;3.55;;;0.80;;
55082;SDS011;40978;52.850;6.506;2023-04-29T14:06:20;2.65;;;0.60;;
55082;SDS011;40978;52.850;6.506;2023-04-29T14:08:45;1.60;;;0.50;;
55082;SDS011;40978;52.850;6.506;2023-04-29T14:11:11;2.67;;;0.52;;
55082;SDS011;40978;52.850;6.506;2023-04-29T14:13:37;1.52;;;0.50;;
55082;SDS011;40978;52.850;6.506;2023-04-29T14:16:03;2.28;;;0.80;;
55082;SDS011;40978;52.850;6.506;2023-04-29T14:18:30;1.83;;;0.70;;
55082;SDS011;40978;52.850;6.506;2023-04-29T14:20:56;1.50;;;0.75;;
55082;SDS011;40978;52.850;6.506;2023-04-29T14:23:23;2.97;;;0.70;;
55082;SDS011;40978;52.850;6.506;2023-04-29T14:25:52;1.33;;;0.60;;
55082;SDS011;40978;52.850;6.506;2023-04-29T14:28:18;1.63;;;0.52;;
55082;SDS011;40978;52.850;6.506;2023-04-29T14:30:43;3.13;;;0.73;;
55082;SDS011;40978;52.850;6.506;2023-04-29T14:33:09;3.42;;;0.77;;
55082;SDS011;40978;52.850;6.506;2023-04-29T14:35:35;2.17;;;0.90;;
55082;SDS011;40978;52.850;6.506;2023-04-29T14:38:00;4.25;;;1.00;;
55082;SDS011;40978;52.850;6.506;2023-04-29T14:40:26;3.00;;;0.80;;
55082;SDS011;40978;52.850;6.506;2023-04-29T14:42:52;1.58;;;0.57;;
55082;SDS011;40978;52.850;6.506;2023-04-29T14:45:17;2.55;;;0.98;;
55082;SDS011;40978;52.850;6.506;2023-04-29T14:47:43;2.17;;;0.80;;
55082;SDS011;40978;52.850;6.506;2023-04-29T14:50:09;3.05;;;1.05;;
55082;SDS011;40978;52.850;6.506;2023-04-29T14:52:35;2.45;;;1.00;;
55082;SDS011;40978;52.850;6.506;2023-04-29T14:55:01;2.72;;;1.02;;
55082;SDS011;40978;52.850;6.506;2023-04-29T14:57:27;2.33;;;1.10;;